Terminal Aerodrome Forecast
Issued by NWS

Home | Current Version | Previous Version | Text Only | Print | Product List | Glossary On
Versions: 1 2 3 4 5 6 7 8 9 10 11 12 13 14 15 16 17 18 19 20 21 22 23 24 25 26 27 28 29
406
FTUS46 KEKA 111148 CCA
TAFCEC
TAF COR
KCEC 111148Z 1112/1212 15005KT P6SM VCSH BKN035 OVC060
     FM111400 18008KT P6SM VCSH OVC050
     FM111800 20010KT P6SM VCSH OVC050
     FM120600 19005KT P6SM OVC050=

USA.gov is the U.S. government's official web portal to all federal, state and local government web resources and services.